Time;durP1;ratioP1;P1;durP2;ratioP2;P2;SDS_P1;SDS_P2;PMS_P1;PMS_P2;Temp;Humidity;BMP_temperature;BMP_pressure;BME280_temperature;BME280_humidity;BME280_pressure;Samples;Min_cycle;Max_cycle;Signal;HPM_P1;HPM_P2
2022/04/23 00:01:56;;;;;;;10.40;7.80;;;5.20;99.90;;;;;;4178972;28;20645;-73
2022/04/23 00:03:56;;;;;;;11.80;7.90;;;5.20;99.90;;;;;;4178734;28;20685;-72
2022/04/23 00:05:58;;;;;;;11.77;7.90;;;5.20;99.90;;;;;;4178342;28;20221;-72
2022/04/23 00:07:58;;;;;;;15.30;9.00;;;5.20;99.90;;;;;;4177522;28;20719;-72
2022/04/23 00:09:59;;;;;;;13.83;8.77;;;5.10;99.90;;;;;;4179001;28;20442;-72
2022/04/23 00:12:00;;;;;;;10.67;7.87;;;5.20;99.90;;;;;;4178690;28;20193;-73
2022/04/23 00:14:01;;;;;;;13.10;8.97;;;5.20;99.90;;;;;;4178741;28;20201;-72
2022/04/23 00:16:02;;;;;;;11.10;8.03;;;5.30;99.90;;;;;;4176745;28;20200;-73
2022/04/23 00:18:08;;;;;;;13.00;8.67;;;5.20;99.90;;;;;;4178462;28;20940;-72
2022/04/23 00:20:12;;;;;;;12.27;8.27;;;5.20;99.90;;;;;;4177452;28;20479;-72
2022/04/23 00:22:16;;;;;;;12.47;7.97;;;5.20;99.90;;;;;;4177500;28;20438;-72
2022/04/23 00:24:17;;;;;;;10.93;7.37;;;5.10;99.90;;;;;;4177370;28;20422;-72
2022/04/23 00:26:17;;;;;;;14.43;9.27;;;5.10;99.90;;;;;;4178191;28;20427;-72
2022/04/23 00:28:18;;;;;;;9.87;6.87;;;5.10;99.90;;;;;;4177108;28;20459;-73
2022/04/23 00:30:20;;;;;;;9.90;6.53;;;5.00;99.90;;;;;;4178504;28;20209;-72
2022/04/23 00:32:20;;;;;;;8.80;7.10;;;4.90;99.90;;;;;;4177042;28;20433;-72
2022/04/23 00:34:21;;;;;;;8.07;6.60;;;4.90;99.90;;;;;;4178296;28;20903;-72
2022/04/23 00:36:23;;;;;;;12.67;7.77;;;5.00;99.90;;;;;;4178406;28;20195;-72
2022/04/23 00:38:24;;;;;;;10.47;7.43;;;4.90;99.90;;;;;;4177592;28;20221;-71
2022/04/23 00:40:25;;;;;;;11.37;8.20;;;4.90;99.90;;;;;;4179207;28;20434;-72
2022/04/23 00:42:26;;;;;;;10.37;7.77;;;5.00;99.90;;;;;;4177485;28;20439;-71
2022/04/23 00:44:27;;;;;;;10.10;7.70;;;4.90;99.90;;;;;;4179253;28;20855;-72
2022/04/23 00:46:27;;;;;;;10.67;7.20;;;5.00;99.90;;;;;;4177175;28;20185;-71
2022/04/23 00:48:29;;;;;;;11.70;8.33;;;5.00;99.90;;;;;;4179273;28;20206;-71
2022/04/23 00:50:30;;;;;;;11.40;7.87;;;4.90;99.90;;;;;;4161143;28;20331;-72
2022/04/23 00:52:32;;;;;;;11.87;8.57;;;4.90;99.90;;;;;;4178990;28;20860;-72
2022/04/23 00:54:34;;;;;;;10.70;7.67;;;4.90;99.90;;;;;;4177775;28;20231;-72
2022/04/23 00:56:40;;;;;;;10.93;8.13;;;4.80;99.90;;;;;;4176849;28;20427;-71
2022/04/23 00:58:41;;;;;;;11.63;7.83;;;4.80;99.90;;;;;;4179035;28;20456;-71
2022/04/23 01:00:43;;;;;;;12.00;8.27;;;4.90;99.90;;;;;;4177442;28;20425;-73
2022/04/23 01:02:44;;;;;;;12.33;8.73;;;4.90;99.90;;;;;;4177462;28;20270;-72
2022/04/23 01:04:46;;;;;;;12.80;8.00;;;4.90;99.90;;;;;;4179191;28;20418;-72
2022/04/23 01:06:47;;;;;;;14.20;8.77;;;5.00;99.90;;;;;;4180480;28;20173;-72
2022/04/23 01:08:47;;;;;;;13.00;8.33;;;4.90;99.90;;;;;;4180858;28;20547;-71
2022/04/23 01:10:48;;;;;;;16.47;10.33;;;4.90;99.90;;;;;;4182453;28;20719;-71
2022/04/23 01:12:49;;;;;;;13.07;8.37;;;4.90;99.90;;;;;;4180748;28;20821;-71
2022/04/23 01:15:06;;;;;;;15.03;9.10;;;4.90;99.90;;;;;;4180864;28;20423;-71
2022/04/23 01:17:06;;;;;;;11.57;8.40;;;4.90;99.90;;;;;;4180258;28;20197;-71
2022/04/23 01:19:07;;;;;;;11.03;7.50;;;4.80;99.90;;;;;;4180918;28;20451;-71
2022/04/23 01:21:10;;;;;;;9.83;7.10;;;4.70;99.90;;;;;;4182172;28;20273;-71
2022/04/23 01:23:11;;;;;;;11.37;7.47;;;4.70;99.90;;;;;;4181941;28;20170;-71
2022/04/23 01:25:13;;;;;;;13.37;8.07;;;4.60;99.90;;;;;;4180358;28;20815;-70
2022/04/23 01:27:15;;;;;;;13.40;7.60;;;4.60;99.90;;;;;;4163581;28;20426;-71
2022/04/23 01:29:15;;;;;;;12.87;9.10;;;4.70;99.90;;;;;;4181855;28;20428;-71
2022/04/23 01:31:16;;;;;;;11.53;8.43;;;4.60;99.90;;;;;;4181685;28;20513;-70
2022/04/23 01:33:17;;;;;;;10.57;7.50;;;4.60;99.90;;;;;;4180337;28;20189;-73
2022/04/23 01:35:18;;;;;;;14.00;8.93;;;4.60;99.90;;;;;;4181622;28;20183;-72
2022/04/23 01:37:19;;;;;;;13.27;8.10;;;4.50;99.90;;;;;;4193157;28;20513;-73
2022/04/23 01:39:19;;;;;;;13.37;8.67;;;4.40;99.90;;;;;;4198143;28;20221;-72
2022/04/23 01:41:20;;;;;;;13.97;8.70;;;4.40;99.90;;;;;;4198244;28;20546;-72
2022/04/23 01:43:21;;;;;;;14.87;9.30;;;4.40;99.90;;;;;;4198091;28;20259;-74
2022/04/23 01:45:21;;;;;;;14.90;9.83;;;4.50;99.90;;;;;;4197327;28;20422;-72
2022/04/23 01:47:23;;;;;;;13.43;8.83;;;4.40;99.90;;;;;;4197927;28;20217;-72
2022/04/23 01:49:24;;;;;;;15.60;10.07;;;4.40;99.90;;;;;;4196523;28;20295;-72
2022/04/23 01:51:24;;;;;;;13.17;9.13;;;4.50;99.90;;;;;;4196645;28;20833;-73
2022/04/23 01:53:25;;;;;;;14.33;9.90;;;4.50;99.90;;;;;;4197802;28;20196;-74
2022/04/23 01:55:26;;;;;;;15.10;10.23;;;4.40;99.90;;;;;;4197336;28;20176;-73
2022/04/23 01:57:26;;;;;;;16.27;8.70;;;4.40;99.90;;;;;;4197777;28;20203;-71
2022/04/23 01:59:27;;;;;;;13.93;9.33;;;4.40;99.90;;;;;;4197777;28;20234;-71
2022/04/23 02:01:28;;;;;;;14.63;8.87;;;4.40;99.90;;;;;;4197965;28;20177;-71
2022/04/23 02:03:29;;;;;;;12.23;8.13;;;4.40;99.90;;;;;;4197830;28;20622;-71
2022/04/23 02:05:30;;;;;;;12.57;8.80;;;4.30;99.90;;;;;;4179314;28;20187;-71
2022/04/23 02:07:42;;;;;;;12.77;8.50;;;4.40;99.90;;;;;;4198106;28;20422;-71
2022/04/23 02:09:42;;;;;;;15.73;10.03;;;4.30;99.90;;;;;;4196577;28;20168;-71
2022/04/23 02:11:44;;;;;;;20.33;11.87;;;4.30;99.90;;;;;;4184274;28;20421;-71
2022/04/23 02:13:45;;;;;;;16.53;10.47;;;4.20;99.90;;;;;;4180779;28;20601;-72
2022/04/23 02:15:46;;;;;;;13.83;10.13;;;4.30;99.90;;;;;;4180124;28;20505;-71
2022/04/23 02:17:49;;;;;;;16.07;10.00;;;4.30;99.90;;;;;;4163079;28;20472;-71
2022/04/23 02:19:49;;;;;;;15.37;10.47;;;4.40;99.90;;;;;;4180856;28;20468;-72
2022/04/23 02:21:50;;;;;;;15.23;10.17;;;4.40;99.90;;;;;;4180642;28;20520;-72
2022/04/23 02:23:56;;;;;;;15.13;9.30;;;4.40;99.90;;;;;;4179501;28;20210;-72
2022/04/23 02:25:56;;;;;;;10.40;7.40;;;4.30;99.90;;;;;;4178923;28;20180;-71
2022/04/23 02:27:57;;;;;;;13.97;9.13;;;4.20;99.90;;;;;;4179613;28;20447;-72
2022/04/23 02:29:58;;;;;;;13.80;8.97;;;4.20;99.90;;;;;;4180635;28;20235;-71
2022/04/23 02:31:59;;;;;;;14.43;9.03;;;4.20;99.90;;;;;;4179167;28;20279;-70
2022/04/23 02:33:59;;;;;;;16.30;9.70;;;4.20;99.90;;;;;;4180671;28;20902;-72
2022/04/23 02:36:00;;;;;;;14.17;9.40;;;4.20;99.90;;;;;;4180019;28;20566;-71
2022/04/23 02:38:04;;;;;;;14.30;10.17;;;4.20;99.90;;;;;;4179221;28;20676;-70
2022/04/23 02:40:07;;;;;;;17.03;9.93;;;4.30;99.90;;;;;;4179307;28;20585;-70
2022/04/23 02:42:10;;;;;;;13.17;8.77;;;4.20;99.90;;;;;;4180503;28;20515;-72
2022/04/23 02:44:14;;;;;;;14.67;9.10;;;4.20;99.90;;;;;;4180433;28;20470;-72
2022/04/23 02:46:15;;;;;;;14.30;9.23;;;4.20;99.90;;;;;;4179708;28;20481;-72
2022/04/23 02:48:16;;;;;;;17.40;10.37;;;4.20;99.90;;;;;;4180391;28;20467;-72
2022/04/23 02:50:25;;;;;;;17.33;11.53;;;4.30;99.90;;;;;;4179208;28;20949;-71
2022/04/23 02:52:26;;;;;;;16.73;10.37;;;4.20;99.90;;;;;;4179006;28;21135;-72
2022/04/23 02:54:27;;;;;;;16.07;10.47;;;4.20;99.90;;;;;;4177323;28;20427;-71
2022/04/23 02:56:28;;;;;;;19.00;11.37;;;4.30;99.90;;;;;;4179538;28;20196;-72
2022/04/23 02:58:29;;;;;;;17.07;10.83;;;4.30;99.90;;;;;;4179813;28;20220;-72
2022/04/23 03:00:30;;;;;;;14.33;9.63;;;4.30;99.90;;;;;;4179979;28;20343;-72
2022/04/23 03:02:33;;;;;;;13.37;8.80;;;4.20;99.90;;;;;;4179793;28;20258;-72
2022/04/23 03:04:33;;;;;;;18.97;10.10;;;4.20;99.90;;;;;;4179946;28;20428;-73
2022/04/23 03:06:34;;;;;;;16.80;9.63;;;4.20;99.90;;;;;;4178185;28;20469;-71
2022/04/23 03:08:38;;;;;;;13.33;8.53;;;4.20;99.90;;;;;;4179856;28;20213;-72
2022/04/23 03:10:39;;;;;;;15.07;9.50;;;4.30;99.90;;;;;;4179874;28;20188;-74
2022/04/23 03:12:41;;;;;;;13.50;9.60;;;4.30;99.90;;;;;;4180337;28;20461;-73
2022/04/23 03:14:43;;;;;;;15.50;8.90;;;4.30;99.90;;;;;;4194195;28;20797;-71
2022/04/23 03:16:44;;;;;;;13.87;9.40;;;4.30;99.90;;;;;;4193080;28;20517;-73
2022/04/23 03:18:44;;;;;;;14.53;10.07;;;4.30;99.90;;;;;;4180043;28;20467;-72
2022/04/23 03:20:45;;;;;;;12.30;8.20;;;4.40;99.90;;;;;;4178356;28;20222;-72
2022/04/23 03:22:46;;;;;;;14.03;9.47;;;4.40;99.90;;;;;;4179838;28;20276;-73
2022/04/23 03:24:47;;;;;;;14.57;9.70;;;4.40;99.90;;;;;;4179684;28;20184;-72
2022/04/23 03:26:48;;;;;;;15.47;9.53;;;4.40;99.90;;;;;;4177669;28;20185;-73
2022/04/23 03:28:49;;;;;;;15.70;9.50;;;4.30;99.90;;;;;;4178870;28;20827;-72
2022/04/23 03:30:50;;;;;;;14.53;9.50;;;4.30;99.90;;;;;;4190804;28;20436;-73
2022/04/23 03:32:50;;;;;;;17.13;11.10;;;4.30;99.90;;;;;;4196152;28;20192;-72
2022/04/23 03:34:51;;;;;;;15.23;9.50;;;4.30;99.90;;;;;;4196182;28;20191;-72
2022/04/23 03:36:53;;;;;;;13.63;9.83;;;4.30;99.90;;;;;;4195410;28;20218;-72
2022/04/23 03:38:54;;;;;;;17.43;9.93;;;4.30;99.90;;;;;;4194818;28;20607;-72
2022/04/23 03:40:55;;;;;;;16.73;10.43;;;4.20;99.90;;;;;;4195995;28;20427;-72
2022/04/23 03:42:57;;;;;;;17.87;11.43;;;4.10;99.90;;;;;;4195918;28;20720;-72
2022/04/23 03:44:57;;;;;;;17.70;10.90;;;4.10;99.90;;;;;;4195610;28;20821;-72
2022/04/23 03:47:00;;;;;;;19.67;11.53;;;4.10;99.90;;;;;;4194211;28;20516;-72
2022/04/23 03:49:00;;;;;;;16.80;10.73;;;4.10;99.90;;;;;;4194272;28;20199;-72
2022/04/23 03:51:01;;;;;;;18.70;10.83;;;4.10;99.90;;;;;;4195750;28;20428;-73
2022/04/23 03:53:02;;;;;;;18.03;11.53;;;4.00;99.90;;;;;;4195957;28;20926;-72
2022/04/23 03:55:04;;;;;;;16.80;10.57;;;4.00;99.90;;;;;;4195338;28;20561;-72
2022/04/23 03:57:05;;;;;;;16.20;10.13;;;4.00;99.90;;;;;;4194765;28;20689;-72
2022/04/23 03:59:07;;;;;;;15.83;9.77;;;4.10;99.90;;;;;;4193964;28;20442;-72
2022/04/23 04:01:08;;;;;;;17.20;9.37;;;4.00;99.90;;;;;;4195329;28;20501;-72
2022/04/23 04:03:08;;;;;;;16.63;11.13;;;4.10;99.90;;;;;;4195893;28;20437;-72
2022/04/23 04:05:10;;;;;;;17.53;10.33;;;4.10;99.90;;;;;;4195590;28;20188;-72
2022/04/23 04:07:20;;;;;;;15.93;10.60;;;4.00;99.90;;;;;;4194152;28;20220;-72
2022/04/23 04:09:20;;;;;;;14.77;9.27;;;4.00;99.90;;;;;;4194440;28;20435;-72
2022/04/23 04:11:22;;;;;;;12.20;8.47;;;4.00;99.90;;;;;;4187234;28;20472;-72
2022/04/23 04:13:23;;;;;;;13.93;8.67;;;4.00;99.90;;;;;;4178662;28;20211;-72
2022/04/23 04:15:24;;;;;;;18.50;10.23;;;4.00;99.90;;;;;;4177925;28;20437;-73
2022/04/23 04:17:25;;;;;;;13.73;9.37;;;4.00;99.90;;;;;;4178532;28;20467;-72
2022/04/23 04:19:27;;;;;;;13.53;8.67;;;3.90;99.90;;;;;;4178587;28;20454;-73
2022/04/23 04:21:28;;;;;;;15.73;9.90;;;4.00;99.90;;;;;;4177644;28;20206;-73
2022/04/23 04:23:29;;;;;;;14.83;9.73;;;4.00;99.90;;;;;;4177527;28;20525;-72
2022/04/23 04:25:30;;;;;;;14.60;9.40;;;4.00;99.90;;;;;;4177997;28;20650;-71
2022/04/23 04:27:31;;;;;;;16.10;9.97;;;4.00;99.90;;;;;;4179112;28;20181;-73
2022/04/23 04:29:32;;;;;;;19.33;10.93;;;4.10;99.90;;;;;;4177617;28;20186;-72
2022/04/23 04:31:52;;;;;;;18.77;12.13;;;4.10;99.90;;;;;;4178721;28;20472;-72
2022/04/23 04:33:53;;;;;;;15.40;10.13;;;4.20;99.90;;;;;;4163124;28;20216;-72
2022/04/23 04:35:53;;;;;;;17.57;11.47;;;4.20;99.90;;;;;;4177692;28;20466;-72
2022/04/23 04:37:54;;;;;;;17.37;9.93;;;4.20;99.90;;;;;;4177102;28;20220;-71
2022/04/23 04:39:55;;;;;;;19.87;11.70;;;4.20;99.90;;;;;;4177765;28;20212;-73
2022/04/23 04:41:55;;;;;;;16.13;9.80;;;4.20;99.90;;;;;;4177218;28;20177;-72
2022/04/23 04:43:56;;;;;;;16.60;10.80;;;4.10;99.90;;;;;;4178534;28;20180;-71
2022/04/23 04:45:57;;;;;;;18.23;11.40;;;4.10;99.90;;;;;;4177979;28;20215;-72
2022/04/23 04:47:58;;;;;;;16.67;10.07;;;4.10;99.90;;;;;;4178469;28;20207;-72
2022/04/23 04:49:58;;;;;;;17.57;11.40;;;4.10;99.90;;;;;;4178326;28;20919;-72
2022/04/23 04:51:59;;;;;;;16.60;10.57;;;4.10;99.90;;;;;;4178200;28;20671;-72
2022/04/23 04:54:00;;;;;;;17.63;10.70;;;4.10;99.90;;;;;;4178235;28;20647;-72
2022/04/23 04:56:00;;;;;;;17.67;10.17;;;4.10;99.90;;;;;;4177720;28;20213;-72
2022/04/23 04:58:01;;;;;;;20.37;11.80;;;4.20;99.90;;;;;;4177997;28;20265;-72
2022/04/23 05:00:04;;;;;;;22.03;11.73;;;4.20;99.90;;;;;;4178260;28;20181;-72
2022/04/23 05:02:05;;;;;;;14.60;10.13;;;4.30;99.90;;;;;;4160418;28;20190;-72
2022/04/23 05:04:06;;;;;;;23.87;13.77;;;4.40;99.90;;;;;;4176758;28;20431;-71
2022/04/23 05:06:07;;;;;;;21.13;13.30;;;4.40;99.90;;;;;;4177434;28;20428;-72
2022/04/23 05:08:08;;;;;;;19.27;12.73;;;4.30;99.90;;;;;;4176689;28;20241;-72
2022/04/23 05:10:08;;;;;;;19.60;12.03;;;4.30;99.90;;;;;;4178166;28;20496;-72
2022/04/23 05:12:10;;;;;;;23.80;13.50;;;4.50;99.90;;;;;;4178253;28;20202;-72
2022/04/23 05:14:10;;;;;;;19.23;13.20;;;4.70;99.90;;;;;;4177858;28;20192;-71
2022/04/23 05:16:11;;;;;;;22.10;13.23;;;4.90;99.90;;;;;;4177250;28;20425;-72
2022/04/23 05:18:12;;;;;;;16.63;10.97;;;5.00;99.90;;;;;;4176580;28;20223;-72
2022/04/23 05:20:12;;;;;;;20.37;12.87;;;5.00;99.90;;;;;;4177929;28;20233;-72
2022/04/23 05:22:13;;;;;;;21.20;13.70;;;5.00;99.90;;;;;;4176800;28;20249;-71
2022/04/23 05:24:14;;;;;;;19.83;13.27;;;5.10;99.90;;;;;;4176062;28;20185;-71
2022/04/23 05:26:15;;;;;;;18.33;11.93;;;5.20;99.90;;;;;;4179011;28;20610;-72
2022/04/23 05:28:16;;;;;;;17.00;10.93;;;5.30;99.90;;;;;;4186097;28;20857;-72
2022/04/23 05:30:16;;;;;;;14.90;10.83;;;5.20;99.90;;;;;;4194028;28;20429;-72
2022/04/23 05:32:17;;;;;;;15.87;10.97;;;5.30;99.90;;;;;;4194473;28;20197;-72
2022/04/23 05:34:18;;;;;;;15.77;10.57;;;5.40;99.90;;;;;;4194436;28;20195;-71
2022/04/23 05:36:18;;;;;;;30.80;16.83;;;5.50;99.50;;;;;;4192492;28;20195;-72
2022/04/23 05:38:20;;;;;;;15.70;11.23;;;5.50;99.50;;;;;;4194274;28;20650;-72
2022/04/23 05:40:21;;;;;;;15.20;10.37;;;5.50;98.90;;;;;;4194363;28;20228;-72
2022/04/23 05:42:22;;;;;;;17.47;10.53;;;5.70;99.10;;;;;;4194245;28;20952;-73
2022/04/23 05:44:23;;;;;;;19.57;11.50;;;5.80;98.60;;;;;;4194383;28;20511;-71
2022/04/23 05:46:24;;;;;;;21.07;12.30;;;5.90;98.40;;;;;;4193686;28;20187;-71
2022/04/23 05:48:24;;;;;;;17.90;11.07;;;6.00;98.40;;;;;;4194161;28;20308;-72
2022/04/23 05:50:26;;;;;;;15.60;10.87;;;6.00;98.10;;;;;;4192857;28;20210;-73
2022/04/23 05:52:26;;;;;;;14.27;9.60;;;6.10;98.40;;;;;;4195922;28;20195;-71
2022/04/23 05:54:27;;;;;;;14.83;10.30;;;6.20;98.60;;;;;;4197311;28;20528;-72
2022/04/23 05:56:28;;;;;;;14.67;10.17;;;6.40;98.50;;;;;;4196621;28;20175;-71
2022/04/23 05:58:28;;;;;;;13.33;9.20;;;6.50;98.50;;;;;;4197450;28;20264;-71
2022/04/23 06:00:29;;;;;;;13.57;9.60;;;6.60;98.30;;;;;;4196038;28;20191;-71
2022/04/23 06:02:30;;;;;;;14.73;10.07;;;6.70;98.20;;;;;;4197215;28;20262;-71
2022/04/23 06:04:30;;;;;;;20.07;14.60;;;6.80;98.30;;;;;;4197200;28;20194;-71
2022/04/23 06:06:31;;;;;;;18.37;13.40;;;7.00;98.20;;;;;;4197369;28;20206;-71
2022/04/23 06:08:32;;;;;;;17.83;12.80;;;7.20;97.90;;;;;;4196314;28;20269;-71
2022/04/23 06:10:33;;;;;;;18.60;12.47;;;7.30;97.80;;;;;;4195798;28;20653;-71
2022/04/23 06:12:35;;;;;;;17.87;12.67;;;7.50;98.00;;;;;;4196941;28;20187;-71
2022/04/23 06:14:35;;;;;;;17.70;12.63;;;7.80;97.70;;;;;;4197593;28;20426;-71
2022/04/23 06:16:37;;;;;;;16.83;11.07;;;8.00;97.80;;;;;;4196929;28;20486;-71
2022/04/23 06:18:38;;;;;;;17.40;13.10;;;8.20;97.50;;;;;;4195174;28;20213;-72
2022/04/23 06:20:38;;;;;;;15.97;11.57;;;8.50;97.80;;;;;;4197530;28;20437;-73
2022/04/23 06:22:39;;;;;;;19.60;13.20;;;8.60;96.70;;;;;;4197525;28;20218;-72
2022/04/23 06:24:40;;;;;;;18.07;13.37;;;8.70;96.70;;;;;;4197325;28;20182;-71
2022/04/23 06:26:40;;;;;;;18.33;12.17;;;8.80;95.20;;;;;;4195385;28;20187;-73
2022/04/23 06:28:41;;;;;;;16.43;11.83;;;8.70;96.20;;;;;;4196374;28;20209;-72
2022/04/23 06:30:41;;;;;;;21.33;13.90;;;8.90;96.60;;;;;;4197024;28;20220;-72
2022/04/23 06:32:42;;;;;;;17.70;12.43;;;9.20;95.30;;;;;;4197041;28;20185;-72
2022/04/23 06:34:43;;;;;;;18.20;13.00;;;9.30;95.10;;;;;;4196759;28;20197;-72
2022/04/23 06:36:43;;;;;;;17.83;12.80;;;9.20;95.30;;;;;;4196272;28;20181;-72
2022/04/23 06:38:44;;;;;;;17.47;13.23;;;9.50;94.70;;;;;;4195345;28;20710;-70
2022/04/23 06:40:45;;;;;;;17.67;12.03;;;9.50;94.20;;;;;;4196793;28;20213;-71
2022/04/23 06:42:45;;;;;;;15.87;12.40;;;9.30;94.00;;;;;;4196651;28;20221;-71
2022/04/23 06:44:46;;;;;;;19.77;15.20;;;9.30;94.60;;;;;;4196741;28;20265;-71
2022/04/23 06:46:47;;;;;;;17.97;12.30;;;9.20;94.60;;;;;;4195056;28;20186;-72
2022/04/23 06:48:48;;;;;;;17.23;12.17;;;9.30;95.00;;;;;;4196961;28;20234;-70
2022/04/23 06:50:48;;;;;;;18.00;13.67;;;9.50;94.10;;;;;;4196839;28;20194;-71
2022/04/23 06:52:49;;;;;;;16.33;12.07;;;9.60;94.10;;;;;;4196898;28;20785;-70
2022/04/23 06:54:51;;;;;;;17.50;12.80;;;9.60;94.30;;;;;;4196716;28;20211;-70
2022/04/23 06:56:52;;;;;;;18.40;13.83;;;10.00;92.80;;;;;;4194758;28;20216;-73
2022/04/23 06:58:52;;;;;;;17.80;13.23;;;9.90;92.70;;;;;;4195336;28;20207;-72
2022/04/23 07:00:53;;;;;;;18.70;12.33;;;9.70;93.10;;;;;;4196602;28;20561;-73
2022/04/23 07:02:54;;;;;;;18.20;13.03;;;9.80;92.90;;;;;;4195675;28;20637;-73
2022/04/23 07:04:55;;;;;;;17.43;12.57;;;10.20;92.70;;;;;;4195202;28;20234;-72
2022/04/23 07:06:55;;;;;;;16.97;11.83;;;10.00;91.90;;;;;;4195953;28;20195;-73
2022/04/23 07:08:56;;;;;;;15.53;11.23;;;9.80;92.60;;;;;;4195156;28;20278;-73
2022/04/23 07:10:58;;;;;;;17.03;12.43;;;9.40;94.10;;;;;;4196397;28;20260;-72
2022/04/23 07:12:59;;;;;;;14.97;11.03;;;9.70;93.70;;;;;;4196202;28;20682;-72
2022/04/23 07:15:00;;;;;;;20.17;13.43;;;10.00;93.20;;;;;;4196440;28;20638;-72
2022/04/23 07:17:01;;;;;;;15.87;12.37;;;10.20;93.00;;;;;;4195720;28;20266;-72
2022/04/23 07:19:04;;;;;;;15.80;12.57;;;10.40;91.50;;;;;;4178162;28;20575;-72
2022/04/23 07:21:05;;;;;;;17.00;12.50;;;10.70;90.60;;;;;;4196303;28;20160;-72
2022/04/23 07:25:25;;;;;;;18.63;14.33;;;10.50;91.60;;;;;;4195183;28;20208;-72
2022/04/23 07:27:27;;;;;;;15.77;12.40;;;10.50;90.40;;;;;;4194630;28;20927;-71
2022/04/23 07:29:28;;;;;;;16.30;12.53;;;10.20;91.20;;;;;;4196125;28;20191;-72
2022/04/23 07:31:29;;;;;;;16.07;12.07;;;10.50;90.80;;;;;;4196129;28;20215;-72
2022/04/23 07:38:21;;;;;;;18.67;11.80;;;11.20;89.40;;;;;;4194754;28;20258;-71
2022/04/23 07:40:22;;;;;;;16.83;12.83;;;11.20;87.50;;;;;;4194622;28;20685;-71
2022/04/23 07:42:23;;;;;;;16.93;12.20;;;11.00;86.40;;;;;;4195974;28;20187;-71
2022/04/23 07:44:24;;;;;;;15.33;12.17;;;11.10;88.20;;;;;;4195835;28;20268;-71
2022/04/23 07:46:25;;;;;;;16.27;12.30;;;11.00;86.50;;;;;;4195296;28;20188;-70
2022/04/23 07:48:25;;;;;;;14.47;11.17;;;10.90;87.60;;;;;;4195930;28;20256;-72
2022/04/23 07:50:26;;;;;;;14.80;11.60;;;11.10;86.60;;;;;;4194487;28;20680;-72
2022/04/23 07:52:28;;;;;;;14.07;10.20;;;11.10;87.50;;;;;;4195659;28;20190;-72
2022/04/23 07:54:28;;;;;;;15.90;11.03;;;10.50;87.70;;;;;;4195522;28;20191;-72
2022/04/23 07:56:29;;;;;;;14.57;10.87;;;10.50;89.20;;;;;;4194899;28;20681;-73
2022/04/23 07:58:30;;;;;;;15.23;11.50;;;10.50;89.30;;;;;;4194424;28;20724;-72
2022/04/23 08:00:36;;;;;;;15.30;9.20;;;10.70;88.50;;;;;;4195342;28;20601;-72
2022/04/23 08:02:37;;;;;;;15.47;11.20;;;10.60;87.70;;;;;;4179029;28;20179;-72
2022/04/23 08:04:38;;;;;;;16.47;11.53;;;10.50;87.40;;;;;;4198194;28;20203;-71
2022/04/23 08:06:38;;;;;;;15.37;11.40;;;10.40;90.00;;;;;;4197928;28;20175;-72
2022/04/23 08:08:39;;;;;;;15.70;12.13;;;10.50;90.10;;;;;;4198559;28;20204;-71
2022/04/23 08:10:40;;;;;;;15.90;11.43;;;10.80;87.70;;;;;;4198717;28;20578;-72
2022/04/23 08:12:41;;;;;;;15.53;11.57;;;10.70;87.30;;;;;;4197412;28;20191;-72
2022/04/23 08:14:42;;;;;;;15.63;11.63;;;10.70;89.00;;;;;;4197763;28;20176;-73
2022/04/23 08:16:42;;;;;;;15.50;11.60;;;10.70;89.10;;;;;;4187477;28;20184;-72
2022/04/23 08:18:43;;;;;;;16.73;13.03;;;11.10;86.30;;;;;;4181530;28;20589;-71
2022/04/23 08:20:45;;;;;;;14.80;11.23;;;10.80;88.20;;;;;;4182161;28;20206;-71
2022/04/23 08:22:45;;;;;;;15.30;11.90;;;10.70;87.80;;;;;;4182330;28;20275;-71
2022/04/23 08:24:46;;;;;;;17.47;12.50;;;10.60;89.10;;;;;;4178229;28;20219;-72
2022/04/23 08:26:47;;;;;;;14.73;11.23;;;10.80;89.60;;;;;;4197566;28;20186;-70
2022/04/23 08:31:07;;;;;;;16.30;11.00;;;11.00;87.40;;;;;;4195516;28;20202;-70
2022/04/23 08:33:08;;;;;;;15.97;11.03;;;11.30;84.90;;;;;;4212233;28;20195;-69
2022/04/23 08:35:09;;;;;;;15.07;11.53;;;11.50;84.00;;;;;;4194119;28;20731;-70
2022/04/23 08:37:10;;;;;;;15.30;11.83;;;11.60;82.10;;;;;;4178516;28;20266;-70
2022/04/23 08:39:11;;;;;;;14.23;11.57;;;11.80;81.70;;;;;;4212200;28;20199;-69
2022/04/23 08:41:12;;;;;;;16.40;12.30;;;11.90;79.90;;;;;;4195761;28;20190;-70
2022/04/23 08:43:13;;;;;;;15.70;12.33;;;11.90;80.00;;;;;;4211811;28;20182;-69
2022/04/23 08:45:14;;;;;;;14.63;10.50;;;11.80;80.30;;;;;;4195094;28;20626;-69
2022/04/23 08:47:16;;;;;;;18.73;14.13;;;11.80;81.00;;;;;;4195547;28;20186;-69
2022/04/23 08:49:17;;;;;;;17.40;12.67;;;11.90;77.70;;;;;;4211566;28;20194;-69
2022/04/23 08:51:22;;;;;;;17.23;11.63;;;11.60;81.50;;;;;;4194833;28;20175;-69
2022/04/23 08:53:27;;;;;;;15.63;11.40;;;11.90;83.00;;;;;;4209396;28;20262;-69
2022/04/23 08:55:29;;;;;;;16.27;11.40;;;12.40;78.80;;;;;;4195156;28;20270;-69
2022/04/23 08:57:30;;;;;;;15.90;10.63;;;12.70;75.20;;;;;;4206911;28;20288;-69
2022/04/23 08:59:30;;;;;;;13.20;10.03;;;12.80;74.40;;;;;;4196328;28;20213;-69
2022/04/23 09:01:31;;;;;;;15.10;11.57;;;12.60;74.70;;;;;;4206699;28;20176;-69
2022/04/23 09:03:32;;;;;;;12.23;9.33;;;12.40;76.30;;;;;;4197257;28;20239;-69
2022/04/23 09:05:32;;;;;;;13.97;10.43;;;12.70;74.40;;;;;;4207343;28;20226;-69
2022/04/23 09:07:33;;;;;;;14.20;11.83;;;12.50;73.80;;;;;;4197198;28;20213;-68
2022/04/23 09:09:46;;;;;;;14.50;12.13;;;12.60;75.40;;;;;;4206294;28;20184;-69
2022/04/23 09:11:56;;;;;;;15.60;11.57;;;12.80;75.80;;;;;;4199550;28;20186;-69
2022/04/23 09:13:57;;;;;;;14.73;10.70;;;12.80;74.80;;;;;;4204425;28;20198;-69
2022/04/23 09:25:31;;;;;;;15.20;10.77;;;12.80;73.20;;;;;;4179898;28;20207;-70
2022/04/23 09:27:34;;;;;;;14.43;11.07;;;12.80;75.70;;;;;;4199619;28;20759;-69
2022/04/23 09:29:34;;;;;;;13.47;9.87;;;13.20;72.30;;;;;;4200760;28;20709;-71
2022/04/23 09:31:35;;;;;;;14.07;10.57;;;13.10;73.00;;;;;;4210504;28;20187;-72
2022/04/23 09:33:54;;;;;;;12.43;10.13;;;12.90;76.40;;;;;;4199576;28;20191;-71
2022/04/23 09:35:56;;;;;;;14.50;11.57;;;13.30;71.90;;;;;;4204404;28;20268;-71
2022/04/23 09:38:14;;;;;;;14.00;10.10;;;13.50;70.30;;;;;;4201691;28;20848;-71
2022/04/23 09:40:19;;;;;;;14.87;9.97;;;13.20;72.70;;;;;;4203650;28;20202;-72
2022/04/23 09:42:20;;;;;;;12.57;9.77;;;13.60;71.60;;;;;;4206645;28;20185;-71
2022/04/23 09:44:29;;;;;;;15.33;12.43;;;13.50;71.50;;;;;;4204078;28;20813;-70
2022/04/23 09:46:43;;;;;;;12.93;10.07;;;13.20;71.30;;;;;;4207808;28;20194;-71
2022/04/23 09:48:44;;;;;;;12.70;10.23;;;13.40;72.50;;;;;;4197986;28;20215;-71
2022/04/23 09:50:47;;;;;;;13.80;10.50;;;13.60;72.70;;;;;;4210356;28;20186;-71
2022/04/23 09:52:49;;;;;;;15.13;11.10;;;14.10;68.20;;;;;;4198767;28;20628;-71
2022/04/23 09:54:50;;;;;;;14.77;11.10;;;14.00;69.70;;;;;;4211061;28;20194;-71
2022/04/23 09:56:51;;;;;;;12.83;9.93;;;14.20;69.20;;;;;;4196667;28;20233;-72
2022/04/23 09:58:53;;;;;;;15.77;11.07;;;14.10;67.90;;;;;;4209825;28;20238;-69
2022/04/23 10:00:56;;;;;;;15.93;10.90;;;14.10;67.50;;;;;;4199188;28;20195;-70
2022/04/23 10:03:00;;;;;;;14.33;11.63;;;14.10;68.50;;;;;;4211820;28;20179;-70
2022/04/23 10:05:03;;;;;;;12.70;10.03;;;13.70;70.60;;;;;;4196911;28;20563;-70
2022/04/23 10:07:07;;;;;;;13.17;10.13;;;13.80;70.10;;;;;;4197152;28;20694;-71
2022/04/23 10:09:09;;;;;;;13.63;9.87;;;14.10;68.80;;;;;;4182539;28;20717;-71
2022/04/23 10:11:37;;;;;;;13.87;10.50;;;14.10;68.10;;;;;;4178821;28;20180;-71
2022/04/23 10:13:44;;;;;;;13.40;10.60;;;14.30;69.10;;;;;;4205787;28;20222;-71
2022/04/23 10:15:46;;;;;;;11.27;9.23;;;14.60;66.90;;;;;;4201357;28;20186;-71
2022/04/23 10:17:48;;;;;;;11.57;9.50;;;14.70;66.00;;;;;;4206963;28;20240;-71
2022/04/23 10:19:49;;;;;;;11.53;9.57;;;14.90;63.70;;;;;;4200442;28;20237;-70
2022/04/23 10:22:31;;;;;;;12.10;9.57;;;15.10;62.30;;;;;;4207739;28;20211;-70
2022/04/23 10:24:56;;;;;;;13.30;9.83;;;14.60;66.00;;;;;;4206774;28;20660;-71
2022/04/23 10:27:07;;;;;;;13.03;9.60;;;14.50;67.10;;;;;;4197735;28;20191;-69
2022/04/23 10:29:16;;;;;;;13.67;10.63;;;14.90;64.60;;;;;;4211597;28;20206;-69
2022/04/23 10:31:17;;;;;;;12.63;10.07;;;14.70;64.00;;;;;;4180415;28;20195;-70
2022/04/23 10:33:28;;;;;;;13.17;8.57;;;14.40;66.70;;;;;;4212181;28;20187;-71
2022/04/23 10:35:29;;;;;;;11.20;9.00;;;14.60;66.20;;;;;;4198650;28;20171;-72
2022/04/23 10:37:40;;;;;;;11.83;10.00;;;14.50;65.40;;;;;;4208832;28;20215;-72
2022/04/23 10:39:42;;;;;;;12.77;10.77;;;14.30;69.70;;;;;;4200680;28;20178;-73
2022/04/23 10:41:43;;;;;;;12.03;9.67;;;14.00;67.80;;;;;;4207276;28;20184;-72
2022/04/23 10:43:52;;;;;;;13.47;9.17;;;14.10;67.60;;;;;;4200840;28;20270;-71
2022/04/23 10:45:53;;;;;;;13.17;9.97;;;14.20;68.10;;;;;;4188536;28;20241;-72
2022/04/23 10:48:22;;;;;;;10.57;8.57;;;13.90;68.40;;;;;;4202382;28;20252;-73